This demonstration page uses our WeatherBlox Daily Observations layout. Learn more.

Left ArrowRight Arrow

39.92423, -83.80882

Hourly Observations for November 14, 2018

Temp ( °F °C ) Dew Point ( °F °C ) Humidity (%) Winds ( mph kmh ) Pressure ( in mb ) Visibility ( mi km ) Precip ( " mm )
12:56 am 00:56 Clear 24 -4.4 19 -7.2 81 81 NNW 8 13 30.48 1032 10 16.0934 N/A
1:56 am 01:56 Clear 23 -5 19 -7.2 85 85 NW 8 13 30.5 1033 10 16.0934 N/A
2:56 am 02:56 Clear 22 -5.6 18 -7.8 85 85 NNW 8 13 30.5 1033 10 16.0934 N/A
3:56 am 03:56 Clear 21 -6.1 17 -8.3 85 85 NNW 5 7 30.51 1033 10 16.0934 N/A
4:56 am 04:56 Clear 20 -6.7 17 -8.3 89 89 NNW 6 9 30.53 1034 10 16.0934 N/A
5:56 am 05:56 Clear 20 -6.7 17 -8.3 89 89 NW 3 6 30.55 1035 10 16.0934 N/A
6:56 am 06:56 Clear 20 -6.7 18 -7.8 92 92 N N/A 30.55 1035 10 16.0934 N/A
7:56 am 07:56 Sunny 20 -6.7 18 -7.8 92 92 N N/A 30.57 1035 10 16.0934 N/A
8:56 am 08:56 Sunny 22 -5.6 19 -7.2 89 89 ENE 5 7 30.58 1036 10 16.0934 N/A
9:56 am 09:56 Sunny 25 -3.9 19 -7.2 78 78 ENE 8 13 30.6 1036 10 16.0934 N/A
10:56 am 10:56 Sunny 27 -2.8 18 -7.8 69 69 E 9 15 30.61 1037 10 16.0934 N/A
11:56 am 11:56 Sunny 28 -2.2 18 -7.8 66 66 ENE 8 13 30.6 1036 10 16.0934 N/A
12:56 pm 12:56 Sunny 29 -1.7 19 -7.2 66 66 NNE 8 13 30.57 1035 10 16.0934 N/A
1:56 pm 13:56 Sunny 29 -1.7 19 -7.2 66 66 NE 6 9 30.55 1035 10 16.0934 N/A
2:56 pm 14:56 Sunny 30 -1.1 19 -7.2 64 64 NE 12 19 30.53 1034 10 16.0934 N/A
3:56 pm 15:56 Sunny 29 -1.7 19 -7.2 66 66 ENE 9 15 30.5 1033 10 16.0934 N/A
4:56 pm 16:56 Sunny 29 -1.7 20 -6.7 69 69 E 12 19 30.5 1033 10 16.0934 N/A
5:56 pm 17:56 Clear 28 -2.2 20 -6.7 72 72 ENE 10 17 30.48 1032 10 16.0934 N/A
6:56 pm 18:56 Clear 28 -2.2 20 -6.7 72 72 ENE 12 19 30.48 1032 10 16.0934 N/A
7:56 pm 19:56 Clear 29 -1.7 20 -6.7 69 69 ENE 13 20 30.45 1031 10 16.0934 N/A
8:56 pm 20:56 Clear 29 -1.7 20 -6.7 69 69 E 14 22 30.44 1031 10 16.0934 N/A
9:56 pm 21:56 Clear 29 -1.7 21 -6.1 72 72 ENE 13 20 30.4 1030 10 16.0934 N/A
10:56 pm 22:56 Cloudy 29 -1.7 21 -6.1 72 72 ENE 15 24 30.38 1029 10 16.0934 N/A
11:56 pm 23:56 Cloudy with Light Wintry Mix 29 -1.7 23 -5 78 78 ENE 13 20 30.35 1028 10 16.0934 N/A

Powered by AerisWeather